Time;durP1;ratioP1;P1;durP2;ratioP2;P2;SDS_P1;SDS_P2;PMS_P1;PMS_P2;Temp;Humidity;BMP_temperature;BMP_pressure;BME280_temperature;BME280_humidity;BME280_pressure;Samples;Min_cycle;Max_cycle;Signal;HPM_P1;HPM_P2
2022/02/04 00:05:27;;;;;;;7.63;4.83;;;2.20;99.90;;;;;;5013015;28;20088;-85
2022/02/04 00:20:14;;;;;;;7.90;5.73;;;2.30;99.90;;;;;;5012750;28;20041;-85
2022/02/04 00:22:09;;;;;;;7.33;4.87;;;2.50;99.90;;;;;;5012677;28;20497;-85
2022/02/04 00:24:17;;;;;;;8.17;4.93;;;2.50;99.90;;;;;;5008833;28;20533;-86
2022/02/04 00:26:50;;;;;;;5.13;3.93;;;2.50;99.90;;;;;;5012236;28;20022;-85
2022/02/04 00:29:31;;;;;;;4.90;3.80;;;2.60;99.90;;;;;;5012187;28;20117;-85
2022/02/04 00:32:03;;;;;;;6.13;4.07;;;2.50;99.90;;;;;;5010780;28;20017;-86
2022/02/04 00:34:37;;;;;;;5.00;4.03;;;2.40;99.90;;;;;;5013023;28;20033;-87
2022/02/04 00:39:56;;;;;;;8.27;4.97;;;2.30;99.90;;;;;;5011766;28;20102;-86
2022/02/04 00:42:22;;;;;;;8.57;5.38;;;2.30;99.90;;;;;;5011954;28;20475;-86
2022/02/04 00:44:50;;;;;;;7.73;5.10;;;2.30;99.90;;;;;;5012163;28;20040;-86
2022/02/04 00:47:20;;;;;;;9.03;5.37;;;2.30;99.90;;;;;;5012345;28;20113;-86
2022/02/04 00:52:30;;;;;;;8.37;5.70;;;2.20;99.90;;;;;;5012144;28;20060;-85
2022/02/04 00:55:11;;;;;;;9.90;5.33;;;2.20;99.90;;;;;;4993110;28;20475;-85
2022/02/04 01:27:12;;;;;;;6.40;4.18;;;1.90;99.90;;;;;;4992529;28;20033;-86
2022/02/04 01:29:49;;;;;;;7.93;5.20;;;1.80;99.90;;;;;;4992431;28;20038;-86
2022/02/04 01:32:16;;;;;;;6.87;5.40;;;1.90;99.90;;;;;;4977042;28;20038;-85
2022/02/04 01:34:41;;;;;;;8.23;5.13;;;1.80;99.90;;;;;;4991493;28;20133;-85
2022/02/04 01:37:08;;;;;;;6.43;4.57;;;1.80;99.90;;;;;;5011180;28;20125;-85
2022/02/04 01:39:34;;;;;;;7.30;5.20;;;1.80;99.90;;;;;;5010703;28;20034;-85
2022/02/04 01:42:00;;;;;;;7.53;4.83;;;1.80;99.90;;;;;;5011340;28;20038;-85
2022/02/04 01:44:28;;;;;;;6.53;4.73;;;1.80;99.90;;;;;;4993420;28;20022;-85
2022/02/04 01:46:54;;;;;;;7.13;5.20;;;1.80;99.90;;;;;;5011493;28;20478;-85
2022/02/04 01:49:22;;;;;;;6.80;4.53;;;1.80;99.90;;;;;;4993574;28;20034;-85
2022/02/04 01:51:48;;;;;;;7.83;5.00;;;1.80;99.90;;;;;;5011901;28;20033;-85
2022/02/04 01:54:14;;;;;;;6.80;4.60;;;1.80;99.90;;;;;;4977541;28;20026;-86
2022/02/04 01:56:39;;;;;;;7.63;4.87;;;1.80;99.90;;;;;;5010255;28;20041;-86
2022/02/04 01:59:05;;;;;;;6.13;4.30;;;1.80;99.90;;;;;;4993297;28;20026;-86
2022/02/04 02:01:32;;;;;;;6.03;4.40;;;1.80;99.90;;;;;;5011212;28;20047;-86
2022/02/04 02:03:59;;;;;;;7.77;4.73;;;1.70;99.90;;;;;;5010664;28;20030;-85
2022/02/04 02:06:50;;;;;;;7.30;5.00;;;1.70;99.90;;;;;;5011061;28;20084;-86
2022/02/04 02:09:16;;;;;;;6.80;4.93;;;1.70;99.90;;;;;;4993296;28;20104;-86
2022/02/04 02:11:43;;;;;;;5.77;4.50;;;1.60;99.90;;;;;;4993596;28;20029;-86
2022/02/04 02:14:12;;;;;;;8.87;5.50;;;1.60;99.90;;;;;;4992879;28;20034;-86
2022/02/04 02:54:30;;;;;;;12.03;7.70;;;1.60;99.90;;;;;;5014705;28;20087;-86
2022/02/04 02:59:39;;;;;;;12.63;8.38;;;1.60;99.90;;;;;;5014395;28;20425;-87
2022/02/04 03:02:04;;;;;;;14.60;8.18;;;1.60;99.90;;;;;;5014604;28;20192;-86
2022/02/04 03:04:31;;;;;;;16.33;8.93;;;1.70;99.90;;;;;;5014437;28;20137;-86
2022/02/04 03:06:57;;;;;;;13.17;8.97;;;1.60;99.90;;;;;;5014388;28;20108;-87
2022/02/04 03:09:23;;;;;;;14.67;8.63;;;1.70;99.90;;;;;;5014525;28;20122;-87
2022/02/04 03:11:49;;;;;;;11.63;7.87;;;1.60;99.90;;;;;;4996937;28;20125;-86
2022/02/04 03:14:14;;;;;;;11.83;7.87;;;1.60;99.90;;;;;;5014568;28;20157;-86
2022/02/04 03:16:40;;;;;;;10.17;7.83;;;1.50;99.90;;;;;;4996000;28;20125;-86
2022/02/04 03:19:08;;;;;;;12.27;7.97;;;1.50;99.90;;;;;;4995436;28;20026;-84
2022/02/04 03:21:40;;;;;;;11.27;8.37;;;1.40;99.90;;;;;;5014155;28;20193;-85
2022/02/04 03:24:11;;;;;;;12.53;8.80;;;1.40;99.90;;;;;;4994254;28;20436;-86
2022/02/04 03:27:01;;;;;;;13.60;9.27;;;1.40;99.90;;;;;;4994989;28;20034;-85
2022/02/04 03:29:27;;;;;;;14.37;9.00;;;1.40;99.90;;;;;;4994272;28;20117;-86
2022/02/04 03:32:01;;;;;;;18.07;10.40;;;1.40;99.90;;;;;;5000757;28;20034;-85
2022/02/04 03:34:26;;;;;;;13.33;9.77;;;1.40;99.90;;;;;;5011885;28;20061;-84
2022/02/04 03:36:53;;;;;;;15.47;10.63;;;1.30;99.90;;;;;;5032019;28;20092;-84
2022/02/04 03:39:18;;;;;;;20.17;12.17;;;1.30;99.90;;;;;;5034866;28;20030;-83
2022/02/04 03:41:44;;;;;;;18.00;12.07;;;1.40;99.90;;;;;;5035353;28;20032;-83
2022/02/04 03:44:09;;;;;;;19.60;12.60;;;1.30;99.90;;;;;;5034872;28;20115;-84
2022/02/04 03:46:35;;;;;;;26.40;15.47;;;1.30;99.90;;;;;;5035041;28;20104;-84
2022/02/04 03:49:00;;;;;;;29.03;15.73;;;1.40;99.90;;;;;;5034850;28;20022;-84
2022/02/04 03:51:26;;;;;;;25.90;15.50;;;1.50;99.90;;;;;;5034716;28;20033;-85
2022/02/04 03:53:52;;;;;;;21.60;13.70;;;1.50;99.90;;;;;;5034866;28;20111;-84
2022/02/04 03:56:18;;;;;;;21.67;13.83;;;1.50;99.90;;;;;;5034963;28;20025;-84
2022/02/04 03:58:43;;;;;;;26.47;15.40;;;1.50;99.90;;;;;;5034706;28;20021;-84
2022/02/04 04:01:09;;;;;;;26.33;16.30;;;1.50;99.90;;;;;;5026908;28;20343;-83
2022/02/04 04:03:35;;;;;;;24.37;15.30;;;1.60;99.90;;;;;;5014934;28;20352;-84
2022/02/04 04:06:01;;;;;;;25.20;15.43;;;1.60;99.90;;;;;;5014770;28;20041;-84
2022/02/04 04:08:26;;;;;;;23.33;15.73;;;1.60;99.90;;;;;;5015250;28;20026;-84
2022/02/04 04:10:53;;;;;;;23.40;15.20;;;1.70;99.90;;;;;;5015119;28;20026;-84
2022/02/04 04:13:19;;;;;;;25.93;16.10;;;1.60;99.90;;;;;;5014535;28;20106;-84
2022/02/04 04:15:46;;;;;;;25.50;16.77;;;1.60;99.90;;;;;;5014516;28;20026;-83
2022/02/04 04:18:12;;;;;;;24.10;16.73;;;1.60;99.90;;;;;;5014974;28;20042;-84
2022/02/04 04:20:44;;;;;;;27.53;16.07;;;1.60;99.90;;;;;;5015097;28;20076;-84
2022/02/04 04:23:10;;;;;;;25.57;16.73;;;1.60;99.90;;;;;;5014694;28;20033;-84
2022/02/04 04:25:35;;;;;;;27.37;17.17;;;1.60;99.90;;;;;;5014529;28;20034;-84
2022/02/04 04:28:01;;;;;;;26.27;16.30;;;1.60;99.90;;;;;;5014474;28;20084;-84
2022/02/04 04:30:27;;;;;;;29.67;17.13;;;1.60;99.90;;;;;;5015132;28;20036;-84
2022/02/04 04:32:55;;;;;;;29.57;17.17;;;1.50;99.90;;;;;;5014461;28;20393;-84
2022/02/04 04:35:24;;;;;;;28.13;16.87;;;1.60;99.90;;;;;;5014406;28;20029;-84
2022/02/04 05:29:54;;;;;;;29.43;17.53;;;0.90;99.90;;;;;;4957888;28;20154;-83
2022/02/04 05:32:20;;;;;;;32.67;19.37;;;0.90;99.90;;;;;;4993956;28;20065;-82
2022/02/04 05:34:47;;;;;;;30.87;18.77;;;0.90;99.90;;;;;;4994032;28;20038;-82
2022/02/04 05:37:14;;;;;;;33.70;19.33;;;1.00;99.90;;;;;;4993544;28;20124;-82
2022/02/04 05:39:52;;;;;;;31.87;18.93;;;1.00;99.90;;;;;;4993777;28;20073;-82
2022/02/04 05:42:22;;;;;;;35.03;19.77;;;1.00;99.90;;;;;;4993915;28;20030;-83
2022/02/04 05:44:55;;;;;;;32.80;19.10;;;1.00;99.90;;;;;;5011181;28;20033;-83
2022/02/04 05:47:21;;;;;;;33.33;18.57;;;1.00;99.90;;;;;;5013391;28;20025;-82
2022/02/04 05:50:04;;;;;;;32.53;18.20;;;1.00;99.90;;;;;;5013124;28;20026;-82
2022/02/04 05:52:34;;;;;;;37.03;19.60;;;1.00;99.90;;;;;;4995962;28;20462;-83
2022/02/04 05:57:54;;;;;;;37.97;20.80;;;1.10;99.90;;;;;;5013567;28;20026;-82
2022/02/04 06:00:33;;;;;;;31.50;18.77;;;1.10;99.90;;;;;;5006480;28;20072;-82
2022/02/04 06:11:05;;;;;;;34.55;20.65;;;1.40;99.90;;;;;;5018630;28;20034;-88
2022/02/04 06:24:24;;;;;;;38.73;20.47;;;1.80;99.90;;;;;;5016227;28;20067;-89
2022/02/04 06:26:51;;;;;;;31.03;17.70;;;1.80;99.90;;;;;;5009793;28;20081;-89
2022/02/04 06:29:17;;;;;;;31.77;18.27;;;1.80;99.90;;;;;;5009368;28;20046;-88
2022/02/04 06:31:42;;;;;;;30.67;18.90;;;1.90;99.90;;;;;;5000451;28;20029;-88
2022/02/04 06:34:08;;;;;;;33.20;20.30;;;2.00;99.90;;;;;;5019919;28;20112;-89
2022/02/04 06:36:33;;;;;;;30.93;19.20;;;2.00;99.90;;;;;;5015197;28;20124;-89
2022/02/04 06:38:59;;;;;;;29.83;17.90;;;2.10;99.90;;;;;;5016692;28;20029;-89
2022/02/04 06:41:24;;;;;;;26.70;17.53;;;2.20;99.90;;;;;;5016820;28;20021;-89
2022/02/04 06:43:50;;;;;;;28.97;18.80;;;2.40;99.90;;;;;;5015708;28;20022;-88
2022/02/04 06:46:16;;;;;;;27.80;17.47;;;2.40;99.90;;;;;;5016690;28;20033;-89
2022/02/04 06:48:41;;;;;;;30.00;18.53;;;2.50;99.90;;;;;;4998691;28;20447;-89
2022/02/04 06:51:07;;;;;;;31.70;18.43;;;2.50;99.90;;;;;;5016518;28;20057;-89
2022/02/04 06:53:32;;;;;;;34.40;17.60;;;2.60;99.90;;;;;;4998344;28;20030;-89
2022/02/04 06:55:58;;;;;;;27.10;16.93;;;2.70;99.90;;;;;;5016166;28;20103;-89
2022/02/04 06:58:24;;;;;;;28.47;19.13;;;2.70;99.90;;;;;;5015895;28;20025;-89
2022/02/04 07:00:49;;;;;;;24.27;17.13;;;2.80;99.90;;;;;;5016253;28;20018;-89
2022/02/04 07:03:15;;;;;;;28.07;17.63;;;2.80;99.90;;;;;;5016228;28;20022;-88
2022/02/04 07:05:52;;;;;;;24.40;16.77;;;2.90;99.90;;;;;;5016005;28;20037;-88
2022/02/04 07:08:24;;;;;;;22.87;15.87;;;2.90;99.90;;;;;;5016086;28;20055;-88
2022/02/04 07:11:06;;;;;;;21.53;15.20;;;3.00;99.90;;;;;;5015804;28;20478;-88
2022/02/04 07:21:39;;;;;;;19.73;14.13;;;3.20;99.90;;;;;;5017035;28;20544;-89
2022/02/04 07:24:05;;;;;;;22.77;13.87;;;3.30;99.90;;;;;;5021605;28;20021;-89
2022/02/04 07:26:32;;;;;;;19.07;13.77;;;3.30;99.90;;;;;;5027038;28;20033;-88
2022/02/04 07:28:59;;;;;;;18.27;13.37;;;3.40;99.90;;;;;;5015207;28;20049;-89
2022/02/04 07:31:27;;;;;;;20.93;14.30;;;3.50;99.90;;;;;;5015312;28;20030;-88
2022/02/04 07:34:06;;;;;;;17.90;13.07;;;3.60;99.90;;;;;;5015292;28;20017;-89
2022/02/04 07:41:42;;;;;;;18.93;13.23;;;3.70;99.90;;;;;;5035708;28;20374;-89
2022/02/04 07:44:09;;;;;;;20.10;12.97;;;3.80;99.90;;;;;;5028794;28;20032;-89
2022/02/04 07:46:34;;;;;;;18.10;13.73;;;3.80;99.90;;;;;;5015015;28;20462;-89
2022/02/04 07:49:00;;;;;;;18.17;13.07;;;3.80;99.90;;;;;;5001886;28;20121;-88
2022/02/04 07:51:26;;;;;;;16.80;12.87;;;3.90;99.90;;;;;;5011964;28;20413;-89
2022/02/04 07:53:52;;;;;;;19.63;13.43;;;4.00;99.90;;;;;;5014681;28;20026;-89
2022/02/04 07:56:21;;;;;;;19.57;13.70;;;4.00;99.90;;;;;;5015546;28;20567;-89
2022/02/04 07:58:55;;;;;;;19.23;14.00;;;4.00;99.90;;;;;;4998077;28;20045;-89
2022/02/04 08:01:25;;;;;;;17.30;12.73;;;4.00;99.90;;;;;;5015307;28;20466;-88
2022/02/04 08:03:59;;;;;;;19.90;13.87;;;4.10;99.90;;;;;;5015225;28;20083;-89
2022/02/04 08:06:26;;;;;;;17.93;12.80;;;4.10;99.90;;;;;;5016004;28;20500;-88
2022/02/04 08:09:02;;;;;;;17.67;12.53;;;4.20;99.90;;;;;;5016030;28;20049;-89
2022/02/04 08:11:58;;;;;;;19.47;12.77;;;4.30;99.90;;;;;;5015181;28;20036;-89
2022/02/04 08:17:20;;;;;;;16.73;12.50;;;4.30;99.90;;;;;;5015495;28;20475;-89
2022/02/04 08:23:19;;;;;;;16.63;11.40;;;4.50;99.90;;;;;;4950596;29;20035;-89
2022/02/04 08:36:47;;;;;;;18.73;12.23;;;4.90;99.90;;;;;;4967047;28;20144;-88
2022/02/04 08:49:42;;;;;;;16.70;11.80;;;5.10;99.90;;;;;;5015814;28;20037;-89
2022/02/04 08:54:37;;;;;;;18.43;13.33;;;5.10;99.90;;;;;;5015841;28;20036;-89
2022/02/04 08:57:08;;;;;;;17.40;11.93;;;5.10;99.90;;;;;;5016122;28;20041;-89
2022/02/04 09:04:36;;;;;;;18.00;12.37;;;5.40;99.90;;;;;;5016832;28;20033;-89
2022/02/04 09:07:05;;;;;;;15.93;11.77;;;5.40;99.90;;;;;;5016851;28;20395;-89
2022/02/04 09:12:22;;;;;;;17.53;13.07;;;5.30;99.90;;;;;;5016450;28;20029;-89
2022/02/04 09:20:01;;;;;;;15.97;11.50;;;5.30;99.90;;;;;;5015408;28;20017;-89
2022/02/04 09:22:46;;;;;;;19.50;12.90;;;5.30;99.90;;;;;;5014765;28;20034;-88
2022/02/04 09:25:12;;;;;;;18.07;12.37;;;5.20;99.90;;;;;;5016710;28;20117;-89
2022/02/04 09:27:38;;;;;;;17.67;12.17;;;5.20;99.90;;;;;;5016522;28;20080;-89
2022/02/04 09:30:06;;;;;;;17.23;13.63;;;5.20;99.90;;;;;;5020177;28;20047;-88
2022/02/04 09:32:36;;;;;;;15.80;12.80;;;5.20;99.90;;;;;;4999645;28;20467;-89
2022/02/04 09:35:03;;;;;;;15.40;12.23;;;5.10;99.90;;;;;;5015415;28;20021;-90
2022/02/04 09:37:30;;;;;;;17.80;12.70;;;5.20;99.90;;;;;;5016806;28;20180;-89
2022/02/04 09:39:56;;;;;;;20.63;12.87;;;5.30;99.90;;;;;;5016433;28;20017;-89
2022/02/04 09:42:21;;;;;;;16.97;12.27;;;5.50;99.90;;;;;;5016674;28;20026;-89
2022/02/04 09:44:47;;;;;;;15.67;11.97;;;5.50;99.90;;;;;;5016851;28;20053;-89
2022/02/04 09:47:25;;;;;;;15.40;11.40;;;5.60;99.90;;;;;;4997177;28;20037;-90
2022/02/04 09:49:58;;;;;;;18.17;11.93;;;5.80;99.90;;;;;;4997313;28;20439;-90
2022/02/04 10:19:31;;;;;;;15.83;10.27;;;6.10;99.90;;;;;;5011351;28;20030;-86
2022/02/04 10:21:59;;;;;;;24.77;10.70;;;6.20;99.90;;;;;;5012445;28;20101;-87
2022/02/04 10:24:26;;;;;;;13.63;10.50;;;6.20;99.90;;;;;;4994066;28;20026;-86
2022/02/04 10:27:11;;;;;;;13.47;9.47;;;6.30;99.90;;;;;;5011314;28;20083;-85
2022/02/04 10:29:39;;;;;;;13.80;10.05;;;6.30;99.90;;;;;;5012255;28;20393;-87
2022/02/04 10:32:05;;;;;;;15.00;9.60;;;6.20;99.90;;;;;;5031682;28;20056;-87
2022/02/04 10:34:32;;;;;;;12.10;7.90;;;6.20;99.90;;;;;;5009893;28;20040;-87
2022/02/04 10:42:27;;;;;;;11.37;7.60;;;6.40;99.90;;;;;;5009519;28;20048;-86
2022/02/04 10:47:44;;;;;;;9.70;6.93;;;6.50;99.90;;;;;;5010052;28;20092;-87
2022/02/04 11:02:02;;;;;;;10.00;6.53;;;7.40;99.90;;;;;;5011508;28;20032;-86
2022/02/04 11:04:54;;;;;;;10.40;5.87;;;7.30;99.90;;;;;;5009815;28;20060;-85
2022/02/04 11:33:40;;;;;;;6.37;4.60;;;7.90;99.90;;;;;;5034961;28;20032;-87
2022/02/04 11:35:31;;;;;;;5.90;4.53;;;7.90;99.90;;;;;;5025710;28;20033;-87
2022/02/04 11:52:27;;;;;;;7.33;4.60;;;7.60;99.90;;;;;;5009657;28;20345;-88
2022/02/04 11:55:00;;;;;;;9.00;4.90;;;7.60;99.90;;;;;;4996806;28;20030;-89
2022/02/04 11:57:31;;;;;;;5.50;4.43;;;7.60;99.90;;;;;;5014405;28;20037;-89
2022/02/04 12:00:00;;;;;;;7.63;4.57;;;7.60;99.90;;;;;;5014421;28;20021;-88
2022/02/04 12:02:29;;;;;;;6.50;4.90;;;7.50;99.90;;;;;;5014357;28;20022;-87
2022/02/04 12:05:15;;;;;;;7.43;5.33;;;7.50;99.90;;;;;;4996838;28;20030;-89
2022/02/04 12:07:51;;;;;;;8.18;5.88;;;7.60;99.90;;;;;;5008865;28;20034;-88
2022/02/04 12:10:20;;;;;;;9.33;6.23;;;7.60;99.90;;;;;;5005898;28;20053;-91
2022/02/04 12:15:30;;;;;;;8.37;6.20;;;7.50;99.90;;;;;;5005674;28;20034;-89
2022/02/04 12:18:00;;;;;;;9.63;6.97;;;7.60;99.90;;;;;;5004654;28;20067;-89
2022/02/04 12:20:53;;;;;;;9.37;7.00;;;7.70;99.90;;;;;;5009580;28;20122;-89
2022/02/04 12:23:36;;;;;;;9.13;6.83;;;7.90;99.90;;;;;;5008753;28;20034;-88
2022/02/04 12:26:12;;;;;;;9.63;7.37;;;7.90;99.90;;;;;;5012431;28;20097;-89
2022/02/04 12:28:43;;;;;;;10.20;7.30;;;7.90;99.90;;;;;;4994921;28;20034;-89
2022/02/04 12:31:30;;;;;;;9.77;6.37;;;7.90;99.90;;;;;;5010497;28;20053;-89
2022/02/04 12:34:05;;;;;;;8.33;6.50;;;8.00;99.90;;;;;;5012621;28;20026;-88
2022/02/04 12:36:32;;;;;;;;;;;7.90;99.90;;;;;;5012855;28;20562;-89
2022/02/04 12:39:01;;;;;;;9.27;6.87;;;7.90;99.90;;;;;;5009933;28;20563;-89
2022/02/04 12:41:30;;;;;;;9.67;7.13;;;7.90;99.90;;;;;;4990431;28;20116;-89
2022/02/04 12:43:59;;;;;;;10.63;7.57;;;7.80;99.90;;;;;;5010943;28;20094;-88
2022/02/04 12:46:27;;;;;;;8.63;6.43;;;7.80;99.90;;;;;;5013090;28;20026;-88
2022/02/04 12:48:58;;;;;;;9.57;7.37;;;7.80;99.90;;;;;;5012444;28;20033;-88
2022/02/04 12:51:35;;;;;;;11.63;7.47;;;7.70;99.90;;;;;;4994158;28;20470;-88
2022/02/04 12:54:01;;;;;;;9.60;7.17;;;7.70;99.90;;;;;;4994805;28;20042;-88
2022/02/04 12:57:04;;;;;;;10.20;7.07;;;7.70;99.90;;;;;;5012917;28;20369;-87
2022/02/04 13:07:52;;;;;;;9.07;7.27;;;7.60;99.90;;;;;;5012949;28;20025;-88
2022/02/04 13:10:29;;;;;;;9.87;7.83;;;7.60;99.90;;;;;;5009108;28;20446;-88
2022/02/04 13:13:00;;;;;;;11.07;7.43;;;7.70;99.90;;;;;;5012378;28;20454;-89
2022/02/04 13:15:28;;;;;;;10.13;7.60;;;7.80;99.90;;;;;;5007763;28;20113;-88
2022/02/04 13:17:56;;;;;;;10.87;7.03;;;7.80;99.90;;;;;;5011908;28;20115;-88
2022/02/04 13:20:23;;;;;;;9.53;6.77;;;7.90;99.90;;;;;;5010467;28;20776;-88
2022/02/04 13:22:58;;;;;;;11.97;7.67;;;8.00;99.90;;;;;;4992328;28;20084;-89
2022/02/04 13:25:30;;;;;;;11.53;7.10;;;8.10;99.90;;;;;;5006326;28;20033;-88
2022/02/04 13:28:19;;;;;;;10.20;7.27;;;8.30;99.90;;;;;;5010610;28;20041;-88
2022/02/04 13:31:03;;;;;;;12.03;7.27;;;8.50;99.90;;;;;;5007461;28;20064;-88
2022/02/04 13:33:40;;;;;;;11.80;7.20;;;8.50;99.90;;;;;;5007730;28;20030;-89
2022/02/04 13:39:01;;;;;;;9.87;7.40;;;8.40;99.90;;;;;;5011239;28;20048;-89
2022/02/04 13:41:42;;;;;;;12.60;7.40;;;8.50;99.90;;;;;;5007417;28;20550;-89
2022/02/04 13:50:02;;;;;;;;;;;8.70;99.90;;;;;;5010220;28;20113;-89
2022/02/04 13:52:51;;;;;;;10.73;5.93;;;8.60;99.90;;;;;;4991616;28;20682;-89
2022/02/04 14:03:23;;;;;;;6.57;5.33;;;8.40;99.90;;;;;;5009034;28;20058;-87
2022/02/04 14:05:59;;;;;;;7.33;5.83;;;8.40;99.90;;;;;;5011620;28;20422;-87
2022/02/04 14:08:34;;;;;;;7.97;6.20;;;8.30;99.90;;;;;;5011549;28;20129;-88
2022/02/04 14:11:04;;;;;;;8.05;5.22;;;8.20;99.90;;;;;;4994291;28;20030;-88
2022/02/04 14:13:30;;;;;;;8.27;5.63;;;8.20;99.90;;;;;;5012133;28;20104;-88
2022/02/04 14:15:59;;;;;;;9.87;5.80;;;8.10;99.90;;;;;;5011218;28;20030;-88
2022/02/04 14:18:26;;;;;;;9.43;5.63;;;8.00;99.90;;;;;;4993828;28;20026;-88
2022/02/04 14:20:52;;;;;;;9.57;5.33;;;7.90;99.90;;;;;;5010520;28;20081;-89
2022/02/04 14:23:18;;;;;;;8.23;5.27;;;7.90;99.90;;;;;;5010794;28;20454;-88
2022/02/04 14:25:52;;;;;;;6.07;4.70;;;7.90;99.90;;;;;;4993190;28;20041;-87
2022/02/04 14:28:23;;;;;;;6.28;4.70;;;8.10;99.90;;;;;;5010027;28;20395;-87
2022/02/04 14:30:58;;;;;;;5.30;4.27;;;8.20;99.90;;;;;;5008853;28;20037;-88
2022/02/04 15:01:13;;;;;;;4.03;3.40;;;8.00;99.90;;;;;;5009229;28;20374;-93
2022/02/04 15:03:33;;;;;;;4.83;3.70;;;7.90;99.90;;;;;;5013740;28;20030;-93
2022/02/04 15:06:45;;;;;;;5.83;4.10;;;7.70;99.90;;;;;;5026657;28;20030;-92
2022/02/04 15:08:48;;;;;;;5.60;3.50;;;7.60;99.90;;;;;;5010972;28;20022;-92
2022/02/04 15:11:16;;;;;;;4.77;3.27;;;7.40;99.90;;;;;;5024565;28;20026;-91
2022/02/04 15:13:47;;;;;;;6.43;3.80;;;7.30;99.90;;;;;;5027559;28;20022;-93
2022/02/04 15:16:13;;;;;;;5.30;3.87;;;7.20;99.90;;;;;;5024379;28;20022;-93
2022/02/04 15:18:41;;;;;;;9.60;4.30;;;7.20;99.90;;;;;;5000079;28;20478;-93
2022/02/04 15:21:13;;;;;;;7.07;4.80;;;7.20;99.90;;;;;;4997146;28;20706;-93
2022/02/04 15:23:40;;;;;;;5.83;4.17;;;7.30;99.90;;;;;;5014885;28;20160;-93
2022/02/04 15:26:07;;;;;;;7.30;4.33;;;7.30;99.90;;;;;;5014791;28;20029;-93
2022/02/04 15:28:43;;;;;;;8.07;5.33;;;7.30;99.90;;;;;;4997789;28;20343;-92
2022/02/04 15:31:24;;;;;;;6.10;4.63;;;7.30;99.90;;;;;;4997747;28;20038;-93
2022/02/04 15:33:52;;;;;;;6.90;5.00;;;7.20;99.90;;;;;;5011711;28;20022;-92
2022/02/04 15:36:24;;;;;;;5.70;4.67;;;7.20;99.90;;;;;;5014451;28;20485;-93
2022/02/04 15:38:53;;;;;;;7.00;5.30;;;7.10;99.90;;;;;;5009161;28;20026;-89
2022/02/04 15:41:21;;;;;;;8.17;5.10;;;7.10;99.90;;;;;;5008537;28;20032;-89
2022/02/04 15:43:51;;;;;;;9.37;5.60;;;7.00;99.90;;;;;;5010312;28;20033;-88
2022/02/04 15:54:48;;;;;;;12.67;6.90;;;6.80;99.90;;;;;;5015405;28;20026;-86
2022/02/04 16:02:48;;;;;;;11.43;7.40;;;6.50;99.90;;;;;;5014067;28;20422;-87
2022/02/04 16:05:01;;;;;;;10.90;5.20;;;6.40;99.90;;;;;;5010894;28;20038;-86
2022/02/04 16:07:27;;;;;;;8.33;6.13;;;6.30;99.90;;;;;;5013156;28;20068;-88
2022/02/04 16:10:13;;;;;;;6.43;4.50;;;6.20;99.90;;;;;;5012311;28;20474;-88
2022/02/04 16:12:51;;;;;;;;;;;6.10;99.90;;;;;;5014305;28;20044;-86
2022/02/04 16:15:31;;;;;;;7.33;4.90;;;6.00;99.90;;;;;;5013130;28;19905;-86
2022/02/04 16:17:59;;;;;;;7.03;4.60;;;5.90;99.90;;;;;;5010887;28;20026;-87
2022/02/04 16:20:40;;;;;;;8.80;4.70;;;5.80;99.90;;;;;;4993200;28;20477;-87
2022/02/04 16:23:10;;;;;;;7.10;5.03;;;5.70;99.90;;;;;;5010713;28;20128;-84
2022/02/04 16:26:09;;;;;;;11.37;5.43;;;5.70;99.90;;;;;;5008596;28;20502;-83
2022/02/04 16:28:41;;;;;;;12.30;6.20;;;5.60;99.90;;;;;;4995302;28;20096;-87
2022/02/04 16:31:13;;;;;;;9.77;5.57;;;5.50;99.90;;;;;;5009723;28;20025;-84
2022/02/04 16:33:40;;;;;;;9.70;4.90;;;5.40;99.90;;;;;;5007839;28;20053;-85
2022/02/04 16:36:12;;;;;;;8.63;5.17;;;5.20;99.90;;;;;;5008984;28;20054;-86
2022/02/04 16:38:40;;;;;;;13.53;6.07;;;5.20;99.90;;;;;;5009468;28;20768;-86
2022/02/04 16:41:09;;;;;;;8.67;5.50;;;5.10;99.90;;;;;;4990524;28;20372;-77
2022/02/04 16:43:35;;;;;;;8.60;5.23;;;5.00;99.90;;;;;;5006998;28;20068;-85
2022/02/04 16:46:08;;;;;;;7.60;4.67;;;4.90;99.90;;;;;;4992536;28;20061;-86
2022/02/04 16:48:35;;;;;;;6.47;4.90;;;4.80;99.90;;;;;;5011015;28;20034;-85
2022/02/04 16:51:01;;;;;;;6.53;5.00;;;4.70;99.90;;;;;;5010779;28;20052;-85
2022/02/04 16:53:30;;;;;;;13.73;5.97;;;4.60;99.90;;;;;;5009698;28;20116;-86
2022/02/04 16:55:55;;;;;;;19.27;5.57;;;4.60;99.90;;;;;;5007960;28;20029;-85
2022/02/04 16:58:21;;;;;;;20.70;6.30;;;4.50;99.90;;;;;;5010604;28;20056;-80
2022/02/04 17:00:47;;;;;;;8.40;6.03;;;4.40;99.90;;;;;;5007776;28;20685;-80
2022/02/04 17:03:12;;;;;;;12.33;6.63;;;4.40;99.90;;;;;;5002749;28;20085;-80
2022/02/04 17:08:07;;;;;;;10.87;6.20;;;4.30;99.90;;;;;;5008767;28;20056;-80
2022/02/04 17:10:35;;;;;;;11.23;6.30;;;4.20;99.90;;;;;;5001915;28;20022;-80
2022/02/04 17:13:01;;;;;;;9.47;6.40;;;4.20;99.90;;;;;;5009990;28;20025;-80
2022/02/04 17:15:33;;;;;;;9.97;6.40;;;4.10;99.90;;;;;;5010315;28;20022;-80
2022/02/04 17:18:00;;;;;;;11.90;5.53;;;4.10;99.90;;;;;;5010252;28;20041;-79
2022/02/04 17:20:26;;;;;;;9.30;5.93;;;4.00;99.90;;;;;;5010386;28;20030;-81
2022/02/04 17:22:52;;;;;;;14.73;6.30;;;4.00;99.90;;;;;;5009976;28;20029;-79
2022/02/04 17:25:25;;;;;;;8.93;5.80;;;4.00;99.90;;;;;;5002418;28;20340;-79
2022/02/04 17:27:51;;;;;;;11.80;6.80;;;4.00;99.90;;;;;;5004026;28;20397;-77
2022/02/04 17:30:17;;;;;;;10.07;7.40;;;4.00;99.90;;;;;;5009379;28;20132;-77
2022/02/04 17:32:44;;;;;;;12.70;6.87;;;4.00;99.90;;;;;;5007568;28;20022;-78
2022/02/04 17:35:11;;;;;;;9.47;6.90;;;4.00;99.90;;;;;;5004557;28;20030;-77
2022/02/04 17:37:37;;;;;;;12.73;8.67;;;4.00;99.90;;;;;;5002081;28;20398;-77
2022/02/04 17:40:05;;;;;;;13.43;8.77;;;4.00;99.90;;;;;;5003251;28;20451;-77
2022/02/04 17:42:31;;;;;;;13.23;8.60;;;4.00;99.90;;;;;;5008771;28;20109;-77
2022/02/04 17:44:57;;;;;;;12.40;8.47;;;4.10;99.90;;;;;;5000180;28;20025;-78
2022/02/04 17:47:26;;;;;;;10.60;7.53;;;4.20;99.90;;;;;;5006931;28;20036;-78
2022/02/04 17:50:08;;;;;;;12.87;7.50;;;4.30;99.90;;;;;;5002456;28;20045;-78
2022/02/04 17:52:42;;;;;;;10.73;7.70;;;4.30;99.90;;;;;;5008038;28;20018;-78
2022/02/04 17:58:22;;;;;;;11.85;6.93;;;4.30;99.90;;;;;;4997257;28;20104;-79
2022/02/04 18:08:30;;;;;;;8.52;6.15;;;4.60;99.90;;;;;;5004943;28;20037;-79
2022/02/04 18:11:00;;;;;;;10.07;6.03;;;4.50;99.90;;;;;;5000191;28;20797;-79
2022/02/04 18:13:26;;;;;;;9.63;6.27;;;4.50;99.90;;;;;;5002903;28;20425;-79
2022/02/04 18:15:51;;;;;;;10.20;6.17;;;4.50;99.90;;;;;;5012369;28;20034;-80
2022/02/04 18:18:18;;;;;;;8.37;6.07;;;4.50;99.90;;;;;;5012757;28;20032;-79
2022/02/04 18:20:44;;;;;;;8.60;5.50;;;4.50;99.90;;;;;;5016159;28;20084;-79
2022/02/04 18:23:16;;;;;;;8.60;5.10;;;4.50;99.90;;;;;;4997429;28;20133;-79
2022/02/04 18:25:43;;;;;;;9.50;5.30;;;4.50;99.90;;;;;;5015231;28;20042;-80
2022/02/04 18:28:09;;;;;;;7.17;4.93;;;4.60;99.90;;;;;;5007131;28;20018;-79
2022/02/04 18:30:35;;;;;;;10.20;5.33;;;4.60;99.90;;;;;;5011630;28;20108;-80
2022/02/04 18:33:02;;;;;;;9.40;5.00;;;4.60;99.90;;;;;;5015713;28;20119;-80
2022/02/04 18:35:29;;;;;;;7.17;5.17;;;4.70;99.90;;;;;;5011001;28;20046;-81
2022/02/04 18:38:11;;;;;;;5.73;4.43;;;4.70;99.90;;;;;;5008158;28;20087;-82
2022/02/04 18:43:51;;;;;;;6.00;3.10;;;4.80;99.90;;;;;;5004384;28;20029;-83
2022/02/04 18:48:54;;;;;;;5.50;2.80;;;4.90;99.90;;;;;;5005105;28;20429;-82
2022/02/04 18:59:26;;;;;;;2.13;1.60;;;5.00;99.90;;;;;;4988200;28;20030;-83
2022/02/04 19:01:52;;;;;;;2.13;1.50;;;5.00;99.90;;;;;;5004855;28;20100;-83
2022/02/04 19:04:23;;;;;;;2.73;1.60;;;5.00;99.90;;;;;;5001142;28;20097;-82
2022/02/04 19:06:57;;;;;;;3.07;1.50;;;5.00;99.90;;;;;;5003659;28;20023;-82
2022/02/04 19:09:23;;;;;;;2.20;1.70;;;5.00;99.90;;;;;;5002769;28;20053;-82
2022/02/04 19:11:53;;;;;;;2.13;1.50;;;5.00;99.90;;;;;;5009522;28;20022;-82
2022/02/04 19:15:20;;;;;;;1.53;1.37;;;5.10;99.90;;;;;;5005143;28;20095;-83
2022/02/04 19:17:13;;;;;;;1.77;1.40;;;5.20;99.90;;;;;;4999326;28;20034;-82
2022/02/04 19:22:40;;;;;;;2.20;1.57;;;5.10;99.90;;;;;;4987517;28;20061;-83
2022/02/04 19:25:11;;;;;;;2.63;1.90;;;5.10;99.90;;;;;;5004675;28;20419;-83
2022/02/04 19:27:37;;;;;;;3.27;1.67;;;5.00;99.90;;;;;;5003354;28;20021;-83
2022/02/04 19:30:09;;;;;;;2.17;1.50;;;5.10;99.90;;;;;;5004886;28;20034;-82
2022/02/04 19:32:34;;;;;;;2.40;1.57;;;5.10;99.90;;;;;;5008873;28;20034;-82
2022/02/04 19:35:00;;;;;;;1.97;1.40;;;5.10;99.90;;;;;;5003760;28;20041;-81
2022/02/04 19:37:25;;;;;;;2.93;1.60;;;5.00;99.90;;;;;;5010574;28;20058;-82
2022/02/04 19:39:51;;;;;;;1.73;1.30;;;5.00;99.90;;;;;;5002774;28;20109;-82
2022/02/04 19:42:29;;;;;;;4.10;1.20;;;5.20;99.90;;;;;;5006534;28;20049;-82
2022/02/04 19:45:06;;;;;;;1.17;1.07;;;5.30;99.90;;;;;;5010237;28;20025;-80
2022/02/04 19:47:37;;;;;;;1.40;1.00;;;5.40;99.90;;;;;;5012678;28;20030;-82
2022/02/04 20:25:03;;;;;;;1.90;1.17;;;5.50;99.90;;;;;;5007131;28;20076;-80